sensor_id;sensor_type;location;lat;lon;timestamp;P1;durP1;ratioP1;P2;durP2;ratioP2
24557;SDS011;12726;49.148;8.582;2023-01-28T00:00:48;5.72;;;3.78;;
24557;SDS011;12726;49.148;8.582;2023-01-28T00:03:33;7.30;;;3.83;;
24557;SDS011;12726;49.148;8.582;2023-01-28T00:06:19;8.50;;;4.75;;
24557;SDS011;12726;49.148;8.582;2023-01-28T00:09:06;9.30;;;5.25;;
24557;SDS011;12726;49.148;8.582;2023-01-28T00:11:51;9.38;;;5.10;;
24557;SDS011;12726;49.148;8.582;2023-01-28T00:14:37;8.35;;;4.40;;
24557;SDS011;12726;49.148;8.582;2023-01-28T00:17:22;6.25;;;3.55;;
24557;SDS011;12726;49.148;8.582;2023-01-28T00:20:08;5.80;;;3.70;;
24557;SDS011;12726;49.148;8.582;2023-01-28T00:22:54;6.00;;;3.90;;
24557;SDS011;12726;49.148;8.582;2023-01-28T00:25:41;6.65;;;3.63;;
24557;SDS011;12726;49.148;8.582;2023-01-28T00:28:26;6.50;;;4.05;;
24557;SDS011;12726;49.148;8.582;2023-01-28T00:31:12;6.32;;;4.10;;
24557;SDS011;12726;49.148;8.582;2023-01-28T00:34:00;5.95;;;4.38;;
24557;SDS011;12726;49.148;8.582;2023-01-28T00:36:45;6.18;;;4.32;;
24557;SDS011;12726;49.148;8.582;2023-01-28T00:39:39;10.23;;;4.18;;
24557;SDS011;12726;49.148;8.582;2023-01-28T00:42:26;6.00;;;3.92;;
24557;SDS011;12726;49.148;8.582;2023-01-28T00:45:11;7.75;;;4.38;;
24557;SDS011;12726;49.148;8.582;2023-01-28T00:47:56;6.85;;;4.00;;
24557;SDS011;12726;49.148;8.582;2023-01-28T00:50:42;5.57;;;3.72;;
24557;SDS011;12726;49.148;8.582;2023-01-28T00:53:28;5.63;;;3.30;;
24557;SDS011;12726;49.148;8.582;2023-01-28T00:56:14;5.43;;;3.53;;
24557;SDS011;12726;49.148;8.582;2023-01-28T00:59:03;6.38;;;3.35;;
24557;SDS011;12726;49.148;8.582;2023-01-28T01:01:49;7.10;;;4.20;;
24557;SDS011;12726;49.148;8.582;2023-01-28T01:04:34;9.13;;;4.30;;
24557;SDS011;12726;49.148;8.582;2023-01-28T01:07:20;7.40;;;4.15;;
24557;SDS011;12726;49.148;8.582;2023-01-28T01:10:15;6.85;;;3.50;;
24557;SDS011;12726;49.148;8.582;2023-01-28T01:13:02;7.78;;;4.32;;
24557;SDS011;12726;49.148;8.582;2023-01-28T01:15:49;7.32;;;3.42;;
24557;SDS011;12726;49.148;8.582;2023-01-28T01:18:34;5.05;;;3.40;;
24557;SDS011;12726;49.148;8.582;2023-01-28T01:21:21;5.30;;;3.70;;
24557;SDS011;12726;49.148;8.582;2023-01-28T01:24:08;5.17;;;3.57;;
24557;SDS011;12726;49.148;8.582;2023-01-28T01:26:53;4.85;;;3.17;;
24557;SDS011;12726;49.148;8.582;2023-01-28T01:29:39;5.07;;;3.17;;
24557;SDS011;12726;49.148;8.582;2023-01-28T01:32:27;5.88;;;3.80;;
24557;SDS011;12726;49.148;8.582;2023-01-28T01:35:14;6.97;;;3.20;;
24557;SDS011;12726;49.148;8.582;2023-01-28T01:37:59;3.78;;;2.95;;
24557;SDS011;12726;49.148;8.582;2023-01-28T01:40:44;4.38;;;3.20;;
24557;SDS011;12726;49.148;8.582;2023-01-28T01:43:46;8.25;;;3.88;;
24557;SDS011;12726;49.148;8.582;2023-01-28T01:46:34;6.10;;;3.50;;
24557;SDS011;12726;49.148;8.582;2023-01-28T01:49:24;7.80;;;3.70;;
24557;SDS011;12726;49.148;8.582;2023-01-28T01:52:11;5.72;;;4.13;;
24557;SDS011;12726;49.148;8.582;2023-01-28T01:55:00;7.38;;;3.97;;
24557;SDS011;12726;49.148;8.582;2023-01-28T01:57:51;7.47;;;3.88;;
24557;SDS011;12726;49.148;8.582;2023-01-28T02:00:39;6.45;;;3.92;;
24557;SDS011;12726;49.148;8.582;2023-01-28T02:03:27;7.28;;;3.65;;
24557;SDS011;12726;49.148;8.582;2023-01-28T02:06:17;5.10;;;3.33;;
24557;SDS011;12726;49.148;8.582;2023-01-28T02:09:02;4.55;;;2.97;;
24557;SDS011;12726;49.148;8.582;2023-01-28T02:11:52;5.05;;;2.90;;
24557;SDS011;12726;49.148;8.582;2023-01-28T02:14:41;5.05;;;3.13;;
24557;SDS011;12726;49.148;8.582;2023-01-28T02:17:30;4.40;;;2.75;;
24557;SDS011;12726;49.148;8.582;2023-01-28T02:20:16;3.65;;;2.30;;
24557;SDS011;12726;49.148;8.582;2023-01-28T02:23:23;3.67;;;2.60;;
24557;SDS011;12726;49.148;8.582;2023-01-28T02:29:35;3.40;;;2.20;;
24557;SDS011;12726;49.148;8.582;2023-01-28T02:32:27;4.00;;;3.05;;
24557;SDS011;12726;49.148;8.582;2023-01-28T02:35:21;5.13;;;3.17;;
24557;SDS011;12726;49.148;8.582;2023-01-28T02:38:14;3.67;;;2.90;;
24557;SDS011;12726;49.148;8.582;2023-01-28T02:41:04;3.95;;;2.95;;
24557;SDS011;12726;49.148;8.582;2023-01-28T02:43:53;4.05;;;2.92;;
24557;SDS011;12726;49.148;8.582;2023-01-28T02:46:39;3.75;;;2.60;;
24557;SDS011;12726;49.148;8.582;2023-01-28T02:49:42;3.50;;;2.58;;
24557;SDS011;12726;49.148;8.582;2023-01-28T02:52:41;3.05;;;2.47;;
24557;SDS011;12726;49.148;8.582;2023-01-28T02:55:55;5.22;;;2.70;;
24557;SDS011;12726;49.148;8.582;2023-01-28T02:58:55;3.85;;;2.90;;
24557;SDS011;12726;49.148;8.582;2023-01-28T03:02:10;4.32;;;3.00;;
24557;SDS011;12726;49.148;8.582;2023-01-28T03:07:47;4.40;;;2.70;;
24557;SDS011;12726;49.148;8.582;2023-01-28T03:10:34;4.13;;;2.92;;
24557;SDS011;12726;49.148;8.582;2023-01-28T03:13:20;3.22;;;2.63;;
24557;SDS011;12726;49.148;8.582;2023-01-28T03:16:23;3.70;;;3.03;;
24557;SDS011;12726;49.148;8.582;2023-01-28T03:19:28;4.47;;;3.15;;
24557;SDS011;12726;49.148;8.582;2023-01-28T03:22:33;4.50;;;3.65;;
24557;SDS011;12726;49.148;8.582;2023-01-28T03:25:43;4.47;;;3.30;;
24557;SDS011;12726;49.148;8.582;2023-01-28T03:28:48;3.95;;;3.17;;
24557;SDS011;12726;49.148;8.582;2023-01-28T03:31:51;4.15;;;3.60;;
24557;SDS011;12726;49.148;8.582;2023-01-28T03:34:57;4.50;;;3.63;;
24557;SDS011;12726;49.148;8.582;2023-01-28T03:38:00;4.18;;;3.60;;
24557;SDS011;12726;49.148;8.582;2023-01-28T03:41:02;4.05;;;3.53;;
24557;SDS011;12726;49.148;8.582;2023-01-28T03:43:47;4.47;;;3.45;;
24557;SDS011;12726;49.148;8.582;2023-01-28T03:46:32;8.15;;;3.85;;
24557;SDS011;12726;49.148;8.582;2023-01-28T03:49:20;5.65;;;4.00;;
24557;SDS011;12726;49.148;8.582;2023-01-28T03:52:07;4.68;;;3.72;;
24557;SDS011;12726;49.148;8.582;2023-01-28T03:54:52;5.00;;;3.80;;
24557;SDS011;12726;49.148;8.582;2023-01-28T03:57:38;4.50;;;3.55;;
24557;SDS011;12726;49.148;8.582;2023-01-28T04:00:24;5.82;;;4.25;;
24557;SDS011;12726;49.148;8.582;2023-01-28T04:03:09;5.22;;;4.00;;
24557;SDS011;12726;49.148;8.582;2023-01-28T04:05:59;5.10;;;4.00;;
24557;SDS011;12726;49.148;8.582;2023-01-28T04:08:47;5.72;;;4.10;;
24557;SDS011;12726;49.148;8.582;2023-01-28T04:11:35;4.65;;;3.75;;
24557;SDS011;12726;49.148;8.582;2023-01-28T04:14:23;5.68;;;4.03;;
24557;SDS011;12726;49.148;8.582;2023-01-28T04:17:09;5.00;;;4.13;;
24557;SDS011;12726;49.148;8.582;2023-01-28T04:19:54;7.20;;;4.03;;
24557;SDS011;12726;49.148;8.582;2023-01-28T04:22:40;5.28;;;4.13;;
24557;SDS011;12726;49.148;8.582;2023-01-28T04:25:27;6.85;;;4.45;;
24557;SDS011;12726;49.148;8.582;2023-01-28T04:28:12;5.43;;;4.20;;
24557;SDS011;12726;49.148;8.582;2023-01-28T04:30:58;6.13;;;4.50;;
24557;SDS011;12726;49.148;8.582;2023-01-28T04:33:43;6.30;;;4.32;;
24557;SDS011;12726;49.148;8.582;2023-01-28T04:36:28;5.40;;;4.05;;
24557;SDS011;12726;49.148;8.582;2023-01-28T04:39:14;5.20;;;4.28;;
24557;SDS011;12726;49.148;8.582;2023-01-28T04:42:01;7.05;;;4.30;;
24557;SDS011;12726;49.148;8.582;2023-01-28T04:44:46;5.78;;;4.05;;
24557;SDS011;12726;49.148;8.582;2023-01-28T04:47:31;6.45;;;4.57;;
24557;SDS011;12726;49.148;8.582;2023-01-28T04:50:17;6.75;;;4.38;;
24557;SDS011;12726;49.148;8.582;2023-01-28T04:53:02;6.63;;;4.05;;
24557;SDS011;12726;49.148;8.582;2023-01-28T04:55:47;4.60;;;4.00;;
24557;SDS011;12726;49.148;8.582;2023-01-28T04:58:34;6.22;;;4.50;;
24557;SDS011;12726;49.148;8.582;2023-01-28T05:01:19;5.40;;;3.88;;
24557;SDS011;12726;49.148;8.582;2023-01-28T05:04:05;6.50;;;4.50;;
24557;SDS011;12726;49.148;8.582;2023-01-28T05:06:51;6.90;;;4.40;;
24557;SDS011;12726;49.148;8.582;2023-01-28T05:09:36;6.60;;;4.60;;
24557;SDS011;12726;49.148;8.582;2023-01-28T05:12:21;7.15;;;4.30;;
24557;SDS011;12726;49.148;8.582;2023-01-28T05:15:08;5.57;;;4.00;;
24557;SDS011;12726;49.148;8.582;2023-01-28T05:17:54;5.53;;;4.30;;
24557;SDS011;12726;49.148;8.582;2023-01-28T05:20:40;7.07;;;4.82;;
24557;SDS011;12726;49.148;8.582;2023-01-28T05:23:25;6.07;;;4.18;;
24557;SDS011;12726;49.148;8.582;2023-01-28T05:26:11;7.95;;;5.25;;
24557;SDS011;12726;49.148;8.582;2023-01-28T05:28:56;6.47;;;4.28;;
24557;SDS011;12726;49.148;8.582;2023-01-28T05:31:43;7.78;;;5.30;;
24557;SDS011;12726;49.148;8.582;2023-01-28T05:34:28;6.28;;;4.60;;
24557;SDS011;12726;49.148;8.582;2023-01-28T05:37:13;6.57;;;4.88;;
24557;SDS011;12726;49.148;8.582;2023-01-28T05:39:58;5.63;;;4.88;;
24557;SDS011;12726;49.148;8.582;2023-01-28T05:42:44;6.88;;;4.45;;
24557;SDS011;12726;49.148;8.582;2023-01-28T05:45:29;6.60;;;4.53;;
24557;SDS011;12726;49.148;8.582;2023-01-28T05:48:16;5.40;;;4.60;;
24557;SDS011;12726;49.148;8.582;2023-01-28T05:51:01;6.10;;;4.28;;
24557;SDS011;12726;49.148;8.582;2023-01-28T05:53:48;5.07;;;4.18;;
24557;SDS011;12726;49.148;8.582;2023-01-28T05:56:33;8.10;;;4.53;;
24557;SDS011;12726;49.148;8.582;2023-01-28T05:59:19;6.10;;;4.07;;
24557;SDS011;12726;49.148;8.582;2023-01-28T06:02:04;6.82;;;4.55;;
24557;SDS011;12726;49.148;8.582;2023-01-28T06:04:51;6.65;;;4.38;;
24557;SDS011;12726;49.148;8.582;2023-01-28T06:07:37;5.55;;;4.38;;
24557;SDS011;12726;49.148;8.582;2023-01-28T06:10:22;6.15;;;4.30;;
24557;SDS011;12726;49.148;8.582;2023-01-28T06:13:08;6.13;;;4.53;;
24557;SDS011;12726;49.148;8.582;2023-01-28T06:15:53;4.85;;;4.05;;
24557;SDS011;12726;49.148;8.582;2023-01-28T06:18:38;5.85;;;4.20;;
24557;SDS011;12726;49.148;8.582;2023-01-28T06:21:25;6.07;;;4.53;;
24557;SDS011;12726;49.148;8.582;2023-01-28T06:24:10;6.43;;;4.20;;
24557;SDS011;12726;49.148;8.582;2023-01-28T06:26:57;5.97;;;4.50;;
24557;SDS011;12726;49.148;8.582;2023-01-28T06:29:42;7.30;;;4.65;;
24557;SDS011;12726;49.148;8.582;2023-01-28T06:32:27;6.85;;;4.82;;
24557;SDS011;12726;49.148;8.582;2023-01-28T06:35:13;6.22;;;4.95;;
24557;SDS011;12726;49.148;8.582;2023-01-28T06:38:00;8.48;;;5.57;;
24557;SDS011;12726;49.148;8.582;2023-01-28T06:40:49;7.55;;;4.72;;
24557;SDS011;12726;49.148;8.582;2023-01-28T06:43:35;6.60;;;4.82;;
24557;SDS011;12726;49.148;8.582;2023-01-28T06:46:21;6.63;;;4.78;;
24557;SDS011;12726;49.148;8.582;2023-01-28T06:49:07;7.65;;;5.30;;
24557;SDS011;12726;49.148;8.582;2023-01-28T06:51:52;7.03;;;4.97;;
24557;SDS011;12726;49.148;8.582;2023-01-28T06:54:39;7.80;;;5.05;;
24557;SDS011;12726;49.148;8.582;2023-01-28T06:57:24;6.47;;;5.07;;
24557;SDS011;12726;49.148;8.582;2023-01-28T07:00:10;6.65;;;4.47;;
24557;SDS011;12726;49.148;8.582;2023-01-28T07:02:58;5.85;;;4.35;;
24557;SDS011;12726;49.148;8.582;2023-01-28T07:05:43;5.15;;;4.28;;
24557;SDS011;12726;49.148;8.582;2023-01-28T07:08:28;5.03;;;3.67;;
24557;SDS011;12726;49.148;8.582;2023-01-28T07:11:15;8.32;;;4.15;;
24557;SDS011;12726;49.148;8.582;2023-01-28T07:14:00;4.95;;;3.40;;
24557;SDS011;12726;49.148;8.582;2023-01-28T07:16:46;5.25;;;3.50;;
24557;SDS011;12726;49.148;8.582;2023-01-28T07:19:31;5.82;;;4.03;;
24557;SDS011;12726;49.148;8.582;2023-01-28T07:22:16;6.45;;;4.10;;
24557;SDS011;12726;49.148;8.582;2023-01-28T07:25:02;5.25;;;4.07;;
24557;SDS011;12726;49.148;8.582;2023-01-28T07:27:50;6.13;;;4.25;;
24557;SDS011;12726;49.148;8.582;2023-01-28T07:30:36;5.85;;;4.13;;
24557;SDS011;12726;49.148;8.582;2023-01-28T07:33:21;7.93;;;3.83;;
24557;SDS011;12726;49.148;8.582;2023-01-28T07:36:07;4.77;;;3.80;;
24557;SDS011;12726;49.148;8.582;2023-01-28T07:38:52;9.23;;;4.60;;
24557;SDS011;12726;49.148;8.582;2023-01-28T07:41:38;5.40;;;4.18;;
24557;SDS011;12726;49.148;8.582;2023-01-28T07:44:24;20.85;;;7.43;;
24557;SDS011;12726;49.148;8.582;2023-01-28T07:47:10;20.77;;;8.18;;
24557;SDS011;12726;49.148;8.582;2023-01-28T07:49:55;9.80;;;6.22;;
24557;SDS011;12726;49.148;8.582;2023-01-28T07:52:40;9.23;;;5.82;;
24557;SDS011;12726;49.148;8.582;2023-01-28T07:55:28;13.25;;;7.10;;
24557;SDS011;12726;49.148;8.582;2023-01-28T07:58:13;8.25;;;5.47;;
24557;SDS011;12726;49.148;8.582;2023-01-28T08:01:00;9.02;;;4.97;;
24557;SDS011;12726;49.148;8.582;2023-01-28T08:03:46;6.90;;;4.43;;
24557;SDS011;12726;49.148;8.582;2023-01-28T08:06:31;6.20;;;4.07;;
24557;SDS011;12726;49.148;8.582;2023-01-28T08:09:20;7.18;;;4.22;;
24557;SDS011;12726;49.148;8.582;2023-01-28T08:12:05;7.75;;;4.05;;
24557;SDS011;12726;49.148;8.582;2023-01-28T08:14:51;8.50;;;4.93;;
24557;SDS011;12726;49.148;8.582;2023-01-28T08:17:37;7.25;;;4.63;;
24557;SDS011;12726;49.148;8.582;2023-01-28T08:20:23;9.93;;;6.28;;
24557;SDS011;12726;49.148;8.582;2023-01-28T08:23:10;8.68;;;5.88;;
24557;SDS011;12726;49.148;8.582;2023-01-28T08:25:56;7.32;;;5.35;;
24557;SDS011;12726;49.148;8.582;2023-01-28T08:28:42;11.30;;;7.00;;
24557;SDS011;12726;49.148;8.582;2023-01-28T08:31:28;13.40;;;8.60;;
24557;SDS011;12726;49.148;8.582;2023-01-28T08:34:14;12.75;;;9.13;;
24557;SDS011;12726;49.148;8.582;2023-01-28T08:37:00;12.68;;;8.70;;
24557;SDS011;12726;49.148;8.582;2023-01-28T08:39:45;11.48;;;7.82;;
24557;SDS011;12726;49.148;8.582;2023-01-28T08:42:30;14.60;;;8.48;;
24557;SDS011;12726;49.148;8.582;2023-01-28T08:45:16;16.33;;;9.60;;
24557;SDS011;12726;49.148;8.582;2023-01-28T08:48:03;11.93;;;6.97;;
24557;SDS011;12726;49.148;8.582;2023-01-28T08:50:50;13.05;;;7.68;;
24557;SDS011;12726;49.148;8.582;2023-01-28T08:53:36;13.27;;;7.60;;
24557;SDS011;12726;49.148;8.582;2023-01-28T08:56:21;12.07;;;7.85;;
24557;SDS011;12726;49.148;8.582;2023-01-28T08:59:07;11.10;;;7.60;;
24557;SDS011;12726;49.148;8.582;2023-01-28T09:01:52;8.35;;;5.78;;
24557;SDS011;12726;49.148;8.582;2023-01-28T09:04:37;9.35;;;6.45;;
24557;SDS011;12726;49.148;8.582;2023-01-28T09:07:24;10.35;;;6.22;;
24557;SDS011;12726;49.148;8.582;2023-01-28T09:10:10;8.70;;;5.30;;
24557;SDS011;12726;49.148;8.582;2023-01-28T09:12:56;8.18;;;5.22;;
24557;SDS011;12726;49.148;8.582;2023-01-28T09:15:41;6.07;;;4.28;;
24557;SDS011;12726;49.148;8.582;2023-01-28T09:18:26;6.80;;;4.57;;
24557;SDS011;12726;49.148;8.582;2023-01-28T09:21:11;5.45;;;4.25;;
24557;SDS011;12726;49.148;8.582;2023-01-28T09:23:58;5.85;;;4.78;;
24557;SDS011;12726;49.148;8.582;2023-01-28T09:26:43;6.32;;;4.72;;
24557;SDS011;12726;49.148;8.582;2023-01-28T09:29:29;7.25;;;5.30;;
24557;SDS011;12726;49.148;8.582;2023-01-28T09:32:14;8.75;;;5.85;;
24557;SDS011;12726;49.148;8.582;2023-01-28T09:35:00;9.48;;;5.68;;
24557;SDS011;12726;49.148;8.582;2023-01-28T09:37:46;6.50;;;5.47;;
24557;SDS011;12726;49.148;8.582;2023-01-28T09:40:35;7.72;;;5.72;;
24557;SDS011;12726;49.148;8.582;2023-01-28T09:43:25;8.05;;;5.78;;
24557;SDS011;12726;49.148;8.582;2023-01-28T09:46:27;7.45;;;5.40;;
24557;SDS011;12726;49.148;8.582;2023-01-28T09:49:18;5.57;;;4.35;;
24557;SDS011;12726;49.148;8.582;2023-01-28T09:52:10;7.25;;;5.00;;
24557;SDS011;12726;49.148;8.582;2023-01-28T09:54:58;5.15;;;3.70;;
24557;SDS011;12726;49.148;8.582;2023-01-28T09:57:48;5.68;;;4.40;;
24557;SDS011;12726;49.148;8.582;2023-01-28T10:00:38;5.50;;;4.28;;
24557;SDS011;12726;49.148;8.582;2023-01-28T10:03:32;6.55;;;5.13;;
24557;SDS011;12726;49.148;8.582;2023-01-28T10:06:29;9.18;;;5.68;;
24557;SDS011;12726;49.148;8.582;2023-01-28T10:09:27;12.60;;;6.72;;
24557;SDS011;12726;49.148;8.582;2023-01-28T10:12:23;14.90;;;8.57;;
24557;SDS011;12726;49.148;8.582;2023-01-28T10:18:40;5.45;;;3.97;;
24557;SDS011;12726;49.148;8.582;2023-01-28T10:21:30;4.95;;;4.10;;
24557;SDS011;12726;49.148;8.582;2023-01-28T10:24:22;7.80;;;5.57;;
24557;SDS011;12726;49.148;8.582;2023-01-28T10:27:14;10.45;;;6.75;;
24557;SDS011;12726;49.148;8.582;2023-01-28T10:30:08;10.32;;;6.38;;
24557;SDS011;12726;49.148;8.582;2023-01-28T10:33:04;6.75;;;5.15;;
24557;SDS011;12726;49.148;8.582;2023-01-28T10:35:57;6.72;;;4.35;;
24557;SDS011;12726;49.148;8.582;2023-01-28T10:38:43;8.80;;;5.53;;
24557;SDS011;12726;49.148;8.582;2023-01-28T10:41:29;6.18;;;4.15;;
24557;SDS011;12726;49.148;8.582;2023-01-28T10:44:17;8.00;;;5.35;;
24557;SDS011;12726;49.148;8.582;2023-01-28T10:47:10;4.88;;;4.03;;
24557;SDS011;12726;49.148;8.582;2023-01-28T10:50:02;7.18;;;4.47;;
24557;SDS011;12726;49.148;8.582;2023-01-28T10:52:51;7.30;;;4.82;;
24557;SDS011;12726;49.148;8.582;2023-01-28T10:55:43;6.85;;;4.65;;
24557;SDS011;12726;49.148;8.582;2023-01-28T10:58:33;8.90;;;4.60;;
24557;SDS011;12726;49.148;8.582;2023-01-28T11:01:19;5.75;;;4.45;;
24557;SDS011;12726;49.148;8.582;2023-01-28T11:04:05;8.20;;;4.28;;
24557;SDS011;12726;49.148;8.582;2023-01-28T11:07:01;6.80;;;4.30;;
24557;SDS011;12726;49.148;8.582;2023-01-28T11:09:48;6.50;;;4.32;;
24557;SDS011;12726;49.148;8.582;2023-01-28T11:12:35;4.80;;;3.83;;
24557;SDS011;12726;49.148;8.582;2023-01-28T11:15:20;6.75;;;4.90;;
24557;SDS011;12726;49.148;8.582;2023-01-28T11:18:07;7.10;;;4.85;;
24557;SDS011;12726;49.148;8.582;2023-01-28T11:21:02;6.18;;;4.28;;
24557;SDS011;12726;49.148;8.582;2023-01-28T11:23:53;6.63;;;5.00;;
24557;SDS011;12726;49.148;8.582;2023-01-28T11:26:42;6.28;;;4.90;;
24557;SDS011;12726;49.148;8.582;2023-01-28T11:29:30;5.65;;;4.07;;
24557;SDS011;12726;49.148;8.582;2023-01-28T11:32:17;6.25;;;4.07;;
24557;SDS011;12726;49.148;8.582;2023-01-28T11:35:04;5.65;;;4.00;;
24557;SDS011;12726;49.148;8.582;2023-01-28T11:37:50;6.55;;;4.32;;
24557;SDS011;12726;49.148;8.582;2023-01-28T11:40:36;6.57;;;5.28;;
24557;SDS011;12726;49.148;8.582;2023-01-28T11:43:23;5.97;;;4.72;;
24557;SDS011;12726;49.148;8.582;2023-01-28T11:46:14;6.63;;;4.63;;
24557;SDS011;12726;49.148;8.582;2023-01-28T11:49:10;7.25;;;4.75;;
24557;SDS011;12726;49.148;8.582;2023-01-28T11:52:06;7.25;;;4.70;;
24557;SDS011;12726;49.148;8.582;2023-01-28T11:55:06;8.23;;;4.60;;
24557;SDS011;12726;49.148;8.582;2023-01-28T11:58:09;14.70;;;7.85;;
24557;SDS011;12726;49.148;8.582;2023-01-28T12:01:05;25.42;;;12.15;;
24557;SDS011;12726;49.148;8.582;2023-01-28T12:04:17;11.18;;;7.20;;
24557;SDS011;12726;49.148;8.582;2023-01-28T12:07:14;5.20;;;3.33;;
24557;SDS011;12726;49.148;8.582;2023-01-28T12:10:08;5.90;;;4.15;;
24557;SDS011;12726;49.148;8.582;2023-01-28T12:13:04;6.45;;;4.03;;
24557;SDS011;12726;49.148;8.582;2023-01-28T12:16:02;4.78;;;3.38;;
24557;SDS011;12726;49.148;8.582;2023-01-28T12:19:08;5.28;;;3.58;;
24557;SDS011;12726;49.148;8.582;2023-01-28T12:22:14;6.15;;;4.18;;
24557;SDS011;12726;49.148;8.582;2023-01-28T12:25:16;5.53;;;3.42;;
24557;SDS011;12726;49.148;8.582;2023-01-28T12:31:10;6.60;;;3.75;;
24557;SDS011;12726;49.148;8.582;2023-01-28T12:34:16;4.22;;;3.00;;
24557;SDS011;12726;49.148;8.582;2023-01-28T12:37:18;7.90;;;4.97;;
24557;SDS011;12726;49.148;8.582;2023-01-28T12:40:16;5.28;;;4.15;;
24557;SDS011;12726;49.148;8.582;2023-01-28T12:43:17;6.57;;;3.80;;
24557;SDS011;12726;49.148;8.582;2023-01-28T12:46:09;6.90;;;4.22;;
24557;SDS011;12726;49.148;8.582;2023-01-28T12:49:02;5.93;;;3.83;;
24557;SDS011;12726;49.148;8.582;2023-01-28T12:51:53;6.55;;;4.38;;
24557;SDS011;12726;49.148;8.582;2023-01-28T12:54:49;6.93;;;4.50;;
24557;SDS011;12726;49.148;8.582;2023-01-28T12:57:40;6.65;;;3.80;;
24557;SDS011;12726;49.148;8.582;2023-01-28T13:00:28;4.85;;;3.83;;
24557;SDS011;12726;49.148;8.582;2023-01-28T13:03:18;3.92;;;3.47;;
24557;SDS011;12726;49.148;8.582;2023-01-28T13:06:09;5.78;;;3.35;;
24557;SDS011;12726;49.148;8.582;2023-01-28T13:08:59;5.45;;;3.38;;
24557;SDS011;12726;49.148;8.582;2023-01-28T13:11:55;5.72;;;3.40;;
24557;SDS011;12726;49.148;8.582;2023-01-28T13:14:43;4.07;;;2.78;;
24557;SDS011;12726;49.148;8.582;2023-01-28T13:17:31;5.88;;;3.55;;
24557;SDS011;12726;49.148;8.582;2023-01-28T13:20:16;5.70;;;2.58;;
24557;SDS011;12726;49.148;8.582;2023-01-28T13:23:24;8.10;;;4.65;;
24557;SDS011;12726;49.148;8.582;2023-01-28T13:26:26;8.00;;;3.40;;
24557;SDS011;12726;49.148;8.582;2023-01-28T13:29:18;5.53;;;3.08;;
24557;SDS011;12726;49.148;8.582;2023-01-28T13:35:26;5.78;;;3.42;;
24557;SDS011;12726;49.148;8.582;2023-01-28T13:38:16;4.43;;;2.78;;
24557;SDS011;12726;49.148;8.582;2023-01-28T13:41:03;5.10;;;2.92;;
24557;SDS011;12726;49.148;8.582;2023-01-28T13:43:49;4.10;;;3.13;;
24557;SDS011;12726;49.148;8.582;2023-01-28T13:46:34;4.85;;;3.35;;
24557;SDS011;12726;49.148;8.582;2023-01-28T13:49:24;4.10;;;2.80;;
24557;SDS011;12726;49.148;8.582;2023-01-28T13:52:15;5.63;;;3.17;;
24557;SDS011;12726;49.148;8.582;2023-01-28T13:55:15;5.55;;;3.00;;
24557;SDS011;12726;49.148;8.582;2023-01-28T13:58:27;4.93;;;3.45;;
24557;SDS011;12726;49.148;8.582;2023-01-28T14:01:30;4.00;;;3.20;;
24557;SDS011;12726;49.148;8.582;2023-01-28T14:04:35;3.90;;;2.88;;
24557;SDS011;12726;49.148;8.582;2023-01-28T14:07:45;4.60;;;2.83;;
24557;SDS011;12726;49.148;8.582;2023-01-28T14:10:49;6.20;;;3.92;;
24557;SDS011;12726;49.148;8.582;2023-01-28T14:13:53;7.18;;;4.40;;
24557;SDS011;12726;49.148;8.582;2023-01-28T14:17:16;4.82;;;3.45;;
24557;SDS011;12726;49.148;8.582;2023-01-28T14:20:08;4.93;;;3.20;;
24557;SDS011;12726;49.148;8.582;2023-01-28T14:23:03;4.60;;;3.33;;
24557;SDS011;12726;49.148;8.582;2023-01-28T14:26:00;5.10;;;3.63;;
24557;SDS011;12726;49.148;8.582;2023-01-28T14:29:01;6.97;;;4.60;;
24557;SDS011;12726;49.148;8.582;2023-01-28T14:31:56;6.07;;;4.47;;
24557;SDS011;12726;49.148;8.582;2023-01-28T14:34:48;5.75;;;4.28;;
24557;SDS011;12726;49.148;8.582;2023-01-28T14:37:33;4.95;;;3.45;;
24557;SDS011;12726;49.148;8.582;2023-01-28T14:40:20;9.43;;;4.60;;
24557;SDS011;12726;49.148;8.582;2023-01-28T14:43:06;6.13;;;3.72;;
24557;SDS011;12726;49.148;8.582;2023-01-28T14:46:04;6.88;;;3.78;;
24557;SDS011;12726;49.148;8.582;2023-01-28T14:49:04;7.68;;;4.18;;
24557;SDS011;12726;49.148;8.582;2023-01-28T14:52:08;4.50;;;3.42;;
24557;SDS011;12726;49.148;8.582;2023-01-28T14:55:08;4.90;;;3.70;;
24557;SDS011;12726;49.148;8.582;2023-01-28T14:58:10;4.90;;;2.83;;
24557;SDS011;12726;49.148;8.582;2023-01-28T15:01:00;6.22;;;3.45;;
24557;SDS011;12726;49.148;8.582;2023-01-28T15:03:45;14.48;;;6.93;;
24557;SDS011;12726;49.148;8.582;2023-01-28T15:06:33;7.63;;;4.85;;
24557;SDS011;12726;49.148;8.582;2023-01-28T15:09:20;8.98;;;5.32;;
24557;SDS011;12726;49.148;8.582;2023-01-28T15:12:06;7.82;;;3.33;;
24557;SDS011;12726;49.148;8.582;2023-01-28T15:14:54;9.20;;;4.68;;
24557;SDS011;12726;49.148;8.582;2023-01-28T15:17:40;4.10;;;3.33;;
24557;SDS011;12726;49.148;8.582;2023-01-28T15:20:25;7.28;;;4.70;;
24557;SDS011;12726;49.148;8.582;2023-01-28T15:23:12;6.82;;;5.20;;
24557;SDS011;12726;49.148;8.582;2023-01-28T15:26:02;6.75;;;4.00;;
24557;SDS011;12726;49.148;8.582;2023-01-28T15:28:49;6.30;;;3.38;;
24557;SDS011;12726;49.148;8.582;2023-01-28T15:31:36;5.60;;;3.85;;
24557;SDS011;12726;49.148;8.582;2023-01-28T15:34:22;5.50;;;3.45;;
24557;SDS011;12726;49.148;8.582;2023-01-28T15:37:13;4.72;;;3.55;;
24557;SDS011;12726;49.148;8.582;2023-01-28T15:40:01;6.05;;;3.30;;
24557;SDS011;12726;49.148;8.582;2023-01-28T15:42:49;6.57;;;4.00;;
24557;SDS011;12726;49.148;8.582;2023-01-28T15:45:35;6.38;;;3.42;;
24557;SDS011;12726;49.148;8.582;2023-01-28T15:48:22;5.18;;;3.80;;
24557;SDS011;12726;49.148;8.582;2023-01-28T15:51:15;6.43;;;3.92;;
24557;SDS011;12726;49.148;8.582;2023-01-28T15:54:04;4.60;;;3.20;;
24557;SDS011;12726;49.148;8.582;2023-01-28T15:56:51;5.63;;;3.50;;
24557;SDS011;12726;49.148;8.582;2023-01-28T15:59:36;5.55;;;3.47;;
24557;SDS011;12726;49.148;8.582;2023-01-28T16:02:22;5.25;;;3.50;;
24557;SDS011;12726;49.148;8.582;2023-01-28T16:05:24;5.82;;;3.70;;
24557;SDS011;12726;49.148;8.582;2023-01-28T16:08:13;6.95;;;4.10;;
24557;SDS011;12726;49.148;8.582;2023-01-28T16:11:08;4.65;;;3.38;;
24557;SDS011;12726;49.148;8.582;2023-01-28T16:13:54;6.60;;;4.32;;
24557;SDS011;12726;49.148;8.582;2023-01-28T16:16:40;8.00;;;5.10;;
24557;SDS011;12726;49.148;8.582;2023-01-28T16:19:32;5.22;;;3.35;;
24557;SDS011;12726;49.148;8.582;2023-01-28T16:22:27;4.72;;;3.53;;
24557;SDS011;12726;49.148;8.582;2023-01-28T16:25:25;6.80;;;3.47;;
24557;SDS011;12726;49.148;8.582;2023-01-28T16:28:13;9.00;;;3.90;;
24557;SDS011;12726;49.148;8.582;2023-01-28T16:31:04;6.82;;;4.03;;
24557;SDS011;12726;49.148;8.582;2023-01-28T16:33:50;7.18;;;3.90;;
24557;SDS011;12726;49.148;8.582;2023-01-28T16:36:35;5.57;;;3.80;;
24557;SDS011;12726;49.148;8.582;2023-01-28T16:39:22;6.90;;;3.92;;
24557;SDS011;12726;49.148;8.582;2023-01-28T16:42:07;5.67;;;4.20;;
24557;SDS011;12726;49.148;8.582;2023-01-28T16:44:53;6.13;;;4.85;;
24557;SDS011;12726;49.148;8.582;2023-01-28T16:47:38;7.65;;;4.43;;
24557;SDS011;12726;49.148;8.582;2023-01-28T16:50:24;9.15;;;6.13;;
24557;SDS011;12726;49.148;8.582;2023-01-28T16:53:11;9.88;;;5.90;;
24557;SDS011;12726;49.148;8.582;2023-01-28T16:56:04;6.78;;;4.57;;
24557;SDS011;12726;49.148;8.582;2023-01-28T16:58:49;6.43;;;4.43;;
24557;SDS011;12726;49.148;8.582;2023-01-28T17:01:35;6.10;;;4.43;;
24557;SDS011;12726;49.148;8.582;2023-01-28T17:04:20;7.43;;;4.45;;
24557;SDS011;12726;49.148;8.582;2023-01-28T17:07:06;8.85;;;4.72;;
24557;SDS011;12726;49.148;8.582;2023-01-28T17:09:52;6.35;;;4.57;;
24557;SDS011;12726;49.148;8.582;2023-01-28T17:12:38;6.93;;;5.18;;
24557;SDS011;12726;49.148;8.582;2023-01-28T17:15:24;7.07;;;4.78;;